JAT0505 SKCG-SKBO
Flight info
| Callsign | JAT0505 |
|---|---|
| Flight time | N/A |
| Altitude | 37000 |
| Route | ESKAB2A UGALU UL305 ATANA ATANA4T |
| Aircraft | A20N/M-SDE2E3FGHIRWXY/LB1 |
Departure
| Time | 2026-05-05 14:23 |
|---|---|
| Airport | Rafael Nuñez International Airport (SKCG) |
Arrival
| Time | N/A |
|---|---|
| Airport | El Dorado International Airport (SKBO) |
| Time | Latitude | Longitude | Altitude | Speed | Heading |
|---|---|---|---|---|---|
| 2026-05-05 14:01 | 10.44492 | -75.51552 | 51 ft | 0 kts | 270° |
| 2026-05-05 14:15 | 10.44492 | -75.51541 | 51 ft | 4 kts | 270° |
| 2026-05-05 14:15 | 10.44492 | -75.51514 | 51 ft | 4 kts | 270° |
| 2026-05-05 14:15 | 10.44496 | -75.51502 | 49 ft | 2 kts | 177° |
| 2026-05-05 14:15 | 10.44510 | -75.51502 | 45 ft | 3 kts | 189° |
| 2026-05-05 14:16 | 10.44529 | -75.51501 | 47 ft | 2 kts | 197° |
| 2026-05-05 14:16 | 10.44545 | -75.51492 | 48 ft | 4 kts | 216° |
| 2026-05-05 14:16 | 10.44555 | -75.51482 | 50 ft | 2 kts | 249° |
| 2026-05-05 14:16 | 10.44558 | -75.51467 | 46 ft | 2 kts | 244° |
| 2026-05-05 14:17 | 10.44565 | -75.51459 | 47 ft | 2 kts | 193° |
| 2026-05-05 14:17 | 10.44585 | -75.51457 | 49 ft | 3 kts | 178° |
| 2026-05-05 14:17 | 10.44609 | -75.51456 | 49 ft | 3 kts | 186° |
| 2026-05-05 14:17 | 10.44625 | -75.51459 | 47 ft | 4 kts | 163° |
| 2026-05-05 14:18 | 10.44642 | -75.51464 | 51 ft | 2 kts | 126° |
| 2026-05-05 14:18 | 10.44653 | -75.51478 | 47 ft | 4 kts | 140° |
| 2026-05-05 14:18 | 10.44650 | -75.51475 | 47 ft | 3 kts | 137° |
| 2026-05-05 14:18 | 10.44641 | -75.51461 | 51 ft | 2 kts | 118° |
| 2026-05-05 14:19 | 10.44636 | -75.51444 | 48 ft | 3 kts | 101° |
| 2026-05-05 14:19 | 10.44634 | -75.51421 | 51 ft | 3 kts | 93° |
| 2026-05-05 14:19 | 10.44633 | -75.51396 | 51 ft | 3 kts | 89° |
| 2026-05-05 14:19 | 10.44637 | -75.51379 | 51 ft | 3 kts | 71° |
| 2026-05-05 14:20 | 10.44646 | -75.51359 | 49 ft | 3 kts | 62° |
| 2026-05-05 14:20 | 10.44650 | -75.51344 | 49 ft | 1 kts | 92° |
| 2026-05-05 14:20 | 10.44650 | -75.51337 | 51 ft | 0 kts | 95° |
| 2026-05-05 14:21 | 10.44650 | -75.51336 | 51 ft | 1 kts | 94° |
| 2026-05-05 14:21 | 10.44663 | -75.51295 | 48 ft | 11 kts | 60° |
| 2026-05-05 14:21 | 10.44793 | -75.51268 | 51 ft | 26 kts | 2° |
| 2026-05-05 14:21 | 10.44987 | -75.51261 | 49 ft | 29 kts | 4° |
| 2026-05-05 14:22 | 10.45183 | -75.51267 | 51 ft | 18 kts | 339° |
| 2026-05-05 14:22 | 10.45248 | -75.51259 | 51 ft | 7 kts | 80° |
| 2026-05-05 14:22 | 10.45232 | -75.51242 | 48 ft | 3 kts | 193° |
| 2026-05-05 14:22 | 10.45191 | -75.51250 | 51 ft | 0 kts | 183° |
| 2026-05-05 14:23 | 10.45081 | -75.51253 | 48 ft | 53 kts | 181° |
| 2026-05-05 14:23 | 10.44418 | -75.51278 | 50 ft | 133 kts | 183° |
| 2026-05-05 14:23 | 10.43325 | -75.51328 | 395 ft | 160 kts | 185° |
| 2026-05-05 14:23 | 10.42268 | -75.51411 | 1228 ft | 161 kts | 181° |
| 2026-05-05 14:24 | 10.40978 | -75.51444 | 1525 ft | 203 kts | 178° |
| 2026-05-05 14:24 | 10.39561 | -75.51414 | 2615 ft | 203 kts | 174° |
| 2026-05-05 14:24 | 10.38190 | -75.51312 | 4052 ft | 192 kts | 173° |
| 2026-05-05 14:24 | 10.36747 | -75.51163 | 4720 ft | 222 kts | 170° |
| 2026-05-05 14:25 | 10.35133 | -75.50941 | 5425 ft | 245 kts | 169° |
| 2026-05-05 14:25 | 10.33383 | -75.50672 | 6184 ft | 263 kts | 169° |
| 2026-05-05 14:25 | 10.31529 | -75.50396 | 6931 ft | 273 kts | 168° |
| 2026-05-05 14:25 | 10.29647 | -75.50056 | 7880 ft | 275 kts | 166° |
| 2026-05-05 14:26 | 10.27780 | -75.49658 | 8798 ft | 279 kts | 165° |
| 2026-05-05 14:26 | 10.25875 | -75.49212 | 9748 ft | 282 kts | 164° |
| 2026-05-05 14:26 | 10.23938 | -75.48739 | 10485 ft | 293 kts | 163° |
| 2026-05-05 14:26 | 10.21872 | -75.48225 | 10827 ft | 317 kts | 163° |
| 2026-05-05 14:27 | 10.19656 | -75.47674 | 11224 ft | 336 kts | 164° |
| 2026-05-05 14:27 | 10.17363 | -75.47110 | 12027 ft | 341 kts | 164° |
| 2026-05-05 14:27 | 10.15044 | -75.46543 | 12899 ft | 345 kts | 164° |
| 2026-05-05 14:27 | 10.12724 | -75.45975 | 13717 ft | 350 kts | 164° |
| 2026-05-05 14:28 | 10.10338 | -75.45390 | 14464 ft | 355 kts | 164° |
| 2026-05-05 14:28 | 10.07921 | -75.44798 | 15176 ft | 360 kts | 164° |
| 2026-05-05 14:28 | 10.05465 | -75.44195 | 15906 ft | 365 kts | 164° |
| 2026-05-05 14:28 | 10.02978 | -75.43584 | 16629 ft | 370 kts | 164° |
| 2026-05-05 14:29 | 10.00454 | -75.42964 | 17335 ft | 375 kts | 164° |
| 2026-05-05 14:29 | 9.97896 | -75.42338 | 18054 ft | 381 kts | 164° |
| 2026-05-05 14:29 | 9.95304 | -75.41703 | 18679 ft | 386 kts | 164° |
| 2026-05-05 14:29 | 9.92670 | -75.41057 | 19295 ft | 391 kts | 164° |
| 2026-05-05 14:30 | 9.90007 | -75.40404 | 19905 ft | 396 kts | 165° |
| 2026-05-05 14:30 | 9.87304 | -75.39741 | 20494 ft | 401 kts | 165° |
| 2026-05-05 14:30 | 9.84568 | -75.39071 | 21067 ft | 407 kts | 165° |
| 2026-05-05 14:30 | 9.81796 | -75.38393 | 21636 ft | 412 kts | 165° |
| 2026-05-05 14:31 | 9.79034 | -75.37717 | 22167 ft | 417 kts | 165° |
| 2026-05-05 14:31 | 9.76196 | -75.37022 | 22693 ft | 421 kts | 165° |
| 2026-05-05 14:31 | 9.73332 | -75.36321 | 23216 ft | 426 kts | 165° |
| 2026-05-05 14:31 | 9.70432 | -75.35611 | 23685 ft | 430 kts | 165° |
| 2026-05-05 14:32 | 9.67505 | -75.34895 | 24138 ft | 433 kts | 165° |
| 2026-05-05 14:32 | 9.64568 | -75.34176 | 24598 ft | 436 kts | 165° |
| 2026-05-05 14:32 | 9.61585 | -75.33445 | 24760 ft | 447 kts | 165° |
| 2026-05-05 14:32 | 9.58521 | -75.32695 | 24861 ft | 459 kts | 165° |
| 2026-05-05 14:33 | 9.55381 | -75.31927 | 24952 ft | 470 kts | 166° |
| 2026-05-05 14:33 | 9.52158 | -75.31138 | 25025 ft | 481 kts | 166° |
| 2026-05-05 14:33 | 9.48853 | -75.30331 | 25031 ft | 492 kts | 166° |
| 2026-05-05 14:33 | 9.45487 | -75.29508 | 25029 ft | 502 kts | 166° |
| 2026-05-05 14:34 | 9.42099 | -75.28680 | 25028 ft | 511 kts | 166° |
| 2026-05-05 14:34 | 9.38624 | -75.27831 | 25029 ft | 516 kts | 166° |
| 2026-05-05 14:34 | 9.35117 | -75.26975 | 25029 ft | 520 kts | 166° |
| 2026-05-05 14:34 | 9.31588 | -75.26113 | 25033 ft | 523 kts | 166° |
| 2026-05-05 14:35 | 9.28076 | -75.25256 | 25459 ft | 513 kts | 166° |
| 2026-05-05 14:35 | 9.24661 | -75.24423 | 26402 ft | 495 kts | 166° |
| 2026-05-05 14:35 | 9.21375 | -75.23621 | 27510 ft | 476 kts | 166° |
| 2026-05-05 14:35 | 9.18210 | -75.22848 | 28536 ft | 462 kts | 166° |
| 2026-05-05 14:36 | 9.15082 | -75.22083 | 28887 ft | 464 kts | 166° |
| 2026-05-05 14:36 | 9.11928 | -75.21312 | 29105 ft | 468 kts | 166° |
| 2026-05-05 14:36 | 9.08798 | -75.20547 | 29381 ft | 469 kts | 166° |
| 2026-05-05 14:36 | 9.05615 | -75.19770 | 29670 ft | 471 kts | 166° |
| 2026-05-05 14:37 | 9.02424 | -75.18992 | 29958 ft | 473 kts | 167° |
| 2026-05-05 14:37 | 8.99215 | -75.18209 | 30205 ft | 475 kts | 167° |
| 2026-05-05 14:37 | 8.95994 | -75.17424 | 30456 ft | 476 kts | 167° |
| 2026-05-05 14:37 | 8.92760 | -75.16636 | 30698 ft | 479 kts | 166° |
| 2026-05-05 14:38 | 8.89520 | -75.15848 | 30963 ft | 480 kts | 166° |
| 2026-05-05 14:38 | 8.86268 | -75.15056 | 31276 ft | 480 kts | 166° |
| 2026-05-05 14:38 | 8.83019 | -75.14264 | 31619 ft | 480 kts | 166° |
| 2026-05-05 14:38 | 8.79772 | -75.13474 | 31962 ft | 479 kts | 166° |
| 2026-05-05 14:39 | 8.76571 | -75.12694 | 32298 ft | 478 kts | 166° |
| 2026-05-05 14:39 | 8.73339 | -75.11908 | 32612 ft | 478 kts | 166° |
| 2026-05-05 14:39 | 8.70100 | -75.11120 | 32926 ft | 477 kts | 166° |
| 2026-05-05 14:39 | 8.66874 | -75.10336 | 33239 ft | 477 kts | 166° |
| 2026-05-05 14:40 | 8.63645 | -75.09551 | 33545 ft | 476 kts | 166° |
| 2026-05-05 14:40 | 8.60425 | -75.08769 | 33839 ft | 476 kts | 166° |
| 2026-05-05 14:40 | 8.57207 | -75.07987 | 34108 ft | 475 kts | 166° |
| 2026-05-05 14:40 | 8.53990 | -75.07205 | 34394 ft | 474 kts | 166° |
| 2026-05-05 14:41 | 8.50788 | -75.06427 | 34693 ft | 472 kts | 166° |
| 2026-05-05 14:41 | 8.47599 | -75.05652 | 34980 ft | 470 kts | 166° |
| 2026-05-05 14:41 | 8.44425 | -75.04880 | 35248 ft | 469 kts | 166° |
| 2026-05-05 14:41 | 8.41257 | -75.04111 | 35511 ft | 468 kts | 166° |
| 2026-05-05 14:42 | 8.38088 | -75.03341 | 35778 ft | 467 kts | 166° |
| 2026-05-05 14:42 | 8.34935 | -75.02575 | 36054 ft | 466 kts | 166° |
| 2026-05-05 14:42 | 8.31787 | -75.01811 | 36311 ft | 465 kts | 166° |
| 2026-05-05 14:42 | 8.28685 | -75.01058 | 36561 ft | 463 kts | 166° |
| 2026-05-05 14:43 | 8.22687 | -74.99602 | 37055 ft | 461 kts | 166° |
| 2026-05-05 14:43 | 8.19569 | -74.98846 | 37314 ft | 459 kts | 166° |
| 2026-05-05 14:43 | 8.16464 | -74.98092 | 37558 ft | 458 kts | 166° |
| 2026-05-05 14:44 | 8.13396 | -74.97348 | 37777 ft | 457 kts | 166° |
| 2026-05-05 14:44 | 8.10270 | -74.96590 | 37981 ft | 456 kts | 166° |
| 2026-05-05 14:44 | 8.04083 | -74.95089 | 38035 ft | 463 kts | 166° |
| 2026-05-05 14:45 | 7.97768 | -74.93558 | 38042 ft | 470 kts | 166° |
| 2026-05-05 14:45 | 7.91408 | -74.92016 | 38047 ft | 474 kts | 166° |
| 2026-05-05 14:46 | 7.84966 | -74.90455 | 38047 ft | 478 kts | 166° |
| 2026-05-05 14:46 | 7.78481 | -74.88885 | 38048 ft | 480 kts | 166° |
| 2026-05-05 14:47 | 7.71978 | -74.87310 | 38054 ft | 482 kts | 166° |
| 2026-05-05 14:47 | 7.65448 | -74.85729 | 38059 ft | 482 kts | 166° |
| 2026-05-05 14:48 | 7.58910 | -74.84147 | 38065 ft | 483 kts | 166° |
| 2026-05-05 14:48 | 7.52363 | -74.82563 | 38076 ft | 484 kts | 166° |
| 2026-05-05 14:49 | 7.45813 | -74.80979 | 38077 ft | 484 kts | 166° |
| 2026-05-05 14:49 | 7.39257 | -74.79394 | 38089 ft | 484 kts | 166° |